createdAt,value
2019-03-03T00:01:53.489Z,6.03
2019-03-03T00:04:35.352Z,4.83
2019-03-03T00:07:17.443Z,4.50
2019-03-03T00:09:59.640Z,7.80
2019-03-03T00:12:42.005Z,6.73
2019-03-03T00:15:24.309Z,7.07
2019-03-03T00:18:04.613Z,8.07
2019-03-03T00:20:53.674Z,3.77
2019-03-03T00:23:35.148Z,5.30
2019-03-03T00:26:17.503Z,7.93
2019-03-03T00:28:57.733Z,7.13
2019-03-03T00:31:46.798Z,8.83
2019-03-03T00:34:46.404Z,5.47
2019-03-03T00:37:54.632Z,6.67
2019-03-03T00:40:55.948Z,6.00
2019-03-03T00:43:46.819Z,5.37
2019-03-03T00:46:48.130Z,4.43
2019-03-03T00:49:36.471Z,5.57
2019-03-03T00:52:37.096Z,5.93
2019-03-03T00:58:54.406Z,9.40
2019-03-03T01:02:10.193Z,6.57
2019-03-03T01:05:11.352Z,7.10
2019-03-03T01:08:12.312Z,6.47
2019-03-03T01:11:13.128Z,4.63
2019-03-03T01:14:02.912Z,9.50
2019-03-03T01:17:06.515Z,6.23
2019-03-03T01:20:07.057Z,6.10
2019-03-03T01:23:10.615Z,7.53
2019-03-03T01:26:11.856Z,6.50
2019-03-03T01:28:53.604Z,9.77
2019-03-03T01:31:35.108Z,7.97
2019-03-03T01:34:17.293Z,6.57
2019-03-03T01:36:58.852Z,7.57
2019-03-03T01:39:40.329Z,8.17
2019-03-03T01:42:21.952Z,10.23
2019-03-03T01:45:03.360Z,7.23
2019-03-03T01:47:44.914Z,8.93
2019-03-03T01:50:27.277Z,6.47
2019-03-03T01:53:09.425Z,8.87
2019-03-03T01:55:51.395Z,5.33
2019-03-03T01:58:32.925Z,9.10
2019-03-03T02:01:14.857Z,9.97
2019-03-03T02:03:57.049Z,6.43
2019-03-03T02:06:38.709Z,9.37
2019-03-03T02:09:20.115Z,5.30
2019-03-03T02:12:02.493Z,7.47
2019-03-03T02:14:44.803Z,9.03
2019-03-03T02:17:26.237Z,8.80
2019-03-03T02:20:08.423Z,6.50
2019-03-03T02:22:50.697Z,12.10
2019-03-03T02:25:32.584Z,5.67
2019-03-03T02:28:14.009Z,13.67
2019-03-03T02:31:03.366Z,11.60
2019-03-03T02:34:11.954Z,8.93
2019-03-03T02:36:53.639Z,9.97
2019-03-03T02:39:35.674Z,8.17
2019-03-03T02:42:15.873Z,11.00
2019-03-03T02:44:46.084Z,9.27
2019-03-03T02:47:54.592Z,8.00
2019-03-03T02:50:36.274Z,8.17
2019-03-03T02:53:16.574Z,10.00
2019-03-03T02:55:58.011Z,7.23
2019-03-03T02:58:40.183Z,6.97
2019-03-03T03:01:28.617Z,5.27
2019-03-03T03:04:10.889Z,5.80
2019-03-03T03:07:17.087Z,7.97
2019-03-03T03:10:17.665Z,10.13
2019-03-03T03:16:42.258Z,5.83
2019-03-03T03:23:23.107Z,8.67
2019-03-03T03:26:23.911Z,6.53
2019-03-03T03:29:24.985Z,6.50
2019-03-03T03:32:31.801Z,7.27
2019-03-03T03:35:33.030Z,6.10
2019-03-03T03:38:27.278Z,8.90
2019-03-03T03:41:43.274Z,10.67
2019-03-03T03:44:44.442Z,8.60
2019-03-03T03:47:45.007Z,7.73
2019-03-03T03:50:46.367Z,10.20
2019-03-03T03:53:35.422Z,7.80
2019-03-03T03:56:43.946Z,8.23
2019-03-03T03:59:31.225Z,9.20
2019-03-03T04:02:32.421Z,8.63
2019-03-03T04:05:25.991Z,10.90
2019-03-03T04:08:12.618Z,8.50
2019-03-03T04:11:01.535Z,10.23
2019-03-03T04:14:09.819Z,10.10
2019-03-03T04:17:10.629Z,6.87
2019-03-03T04:20:05.447Z,9.50
2019-03-03T04:23:03.742Z,9.67
2019-03-03T04:26:15.500Z,5.40
2019-03-03T04:29:05.304Z,6.70
2019-03-03T04:32:06.086Z,7.37
2019-03-03T04:35:07.231Z,11.57
2019-03-03T04:38:03.847Z,10.60
2019-03-03T04:41:04.369Z,9.50
2019-03-03T04:44:11.714Z,6.67
2019-03-03T04:47:12.569Z,10.10
2019-03-03T04:50:13.836Z,6.87
2019-03-03T04:53:14.943Z,10.50
2019-03-03T04:59:17.456Z,8.73
2019-03-03T05:04:56.629Z,10.33
2019-03-03T05:07:45.712Z,8.83
2019-03-03T05:10:53.989Z,8.00
2019-03-03T05:13:49.632Z,6.30
2019-03-03T05:16:50.966Z,8.90
2019-03-03T05:19:36.812Z,11.43
2019-03-03T05:22:20.827Z,9.50
2019-03-03T05:25:02.870Z,11.03
2019-03-03T05:27:44.492Z,8.77
2019-03-03T05:30:26.841Z,10.93
2019-03-03T05:33:09.032Z,8.53
2019-03-03T05:35:51.228Z,12.00
2019-03-03T05:38:32.921Z,8.20
2019-03-03T05:41:15.264Z,7.07
2019-03-03T05:43:57.666Z,10.13
2019-03-03T05:46:39.883Z,9.67
2019-03-03T05:49:22.238Z,8.70
2019-03-03T05:52:03.792Z,10.43
2019-03-03T05:54:46.045Z,8.97
2019-03-03T06:00:24.372Z,10.57
2019-03-03T06:03:13.544Z,7.93
2019-03-03T06:06:02.721Z,11.37
2019-03-03T06:08:51.914Z,9.73
2019-03-03T06:11:33.606Z,10.53
2019-03-03T06:14:15.364Z,11.13
2019-03-03T06:16:57.554Z,12.43
2019-03-03T06:19:39.344Z,6.30
2019-03-03T06:22:21.537Z,6.97
2019-03-03T06:25:03.496Z,9.10
2019-03-03T06:27:45.669Z,7.53
2019-03-03T06:30:27.161Z,14.00
2019-03-03T06:33:08.643Z,9.27
2019-03-03T06:35:50.307Z,10.90
2019-03-03T06:38:31.884Z,11.10
2019-03-03T06:41:13.284Z,8.43
2019-03-03T06:43:55.706Z,11.63
2019-03-03T06:46:37.064Z,9.20
2019-03-03T06:49:07.168Z,9.67
2019-03-03T06:51:56.239Z,9.23
2019-03-03T06:54:37.770Z,9.50
2019-03-03T06:57:19.997Z,9.37
2019-03-03T07:00:01.561Z,8.47
2019-03-03T07:02:42.990Z,8.67
2019-03-03T07:05:26.089Z,8.17
2019-03-03T07:08:08.325Z,5.43
2019-03-03T07:10:50.558Z,9.77
2019-03-03T07:13:32.856Z,7.60
2019-03-03T07:16:14.387Z,9.57
2019-03-03T07:18:55.753Z,7.97
2019-03-03T07:21:38.094Z,10.30
2019-03-03T07:24:19.444Z,8.07
2019-03-03T07:27:00.996Z,5.57
2019-03-03T07:29:31.060Z,10.20
2019-03-03T07:32:20.383Z,6.53
2019-03-03T07:35:00.692Z,7.90
2019-03-03T07:37:49.866Z,9.00
2019-03-03T07:40:19.839Z,5.60
2019-03-03T07:43:08.915Z,5.80
2019-03-03T07:45:50.736Z,6.57
2019-03-03T07:48:32.905Z,4.87
2019-03-03T07:51:14.403Z,7.57
2019-03-03T07:53:56.584Z,5.43
2019-03-03T07:56:26.488Z,4.57
2019-03-03T08:02:16.793Z,5.77
2019-03-03T08:04:46.852Z,5.23
2019-03-03T08:07:16.792Z,7.63
2019-03-03T08:09:46.900Z,8.03
2019-03-03T08:12:16.838Z,5.90
2019-03-03T08:14:46.892Z,7.93
2019-03-03T08:17:16.844Z,5.70
2019-03-03T08:19:46.732Z,8.30
2019-03-03T08:22:16.748Z,6.80
2019-03-03T08:25:07.243Z,7.20
2019-03-03T08:27:56.297Z,7.03
2019-03-03T08:30:38.072Z,5.90
2019-03-03T08:33:20.261Z,9.17
2019-03-03T08:36:02.419Z,7.67
2019-03-03T08:38:43.997Z,5.13
2019-03-03T08:41:26.048Z,7.80
2019-03-03T08:44:11.849Z,4.93
2019-03-03T08:47:12.983Z,7.27
2019-03-03T08:50:02.637Z,8.10
2019-03-03T08:52:59.593Z,4.23
2019-03-03T08:59:14.625Z,7.03
2019-03-03T09:02:22.836Z,6.13
2019-03-03T09:05:11.854Z,7.63
2019-03-03T09:08:20.087Z,5.07
2019-03-03T09:11:24.246Z,3.60
2019-03-03T09:14:25.396Z,4.63
2019-03-03T09:17:25.572Z,4.03
2019-03-03T09:20:26.047Z,3.43
2019-03-03T09:23:14.078Z,5.13
2019-03-03T09:26:15.276Z,2.43
2019-03-03T09:29:16.182Z,3.80
2019-03-03T09:32:17.389Z,3.03
2019-03-03T09:35:18.600Z,1.90
2019-03-03T09:38:19.882Z,2.87
2019-03-03T09:41:11.569Z,3.13
2019-03-03T09:44:18.181Z,3.17
2019-03-03T09:47:18.707Z,3.13
2019-03-03T09:50:07.678Z,3.37
2019-03-03T09:53:15.908Z,4.20
2019-03-03T09:56:19.860Z,3.50
2019-03-03T09:59:20.566Z,4.73
2019-03-03T10:02:21.589Z,3.00
2019-03-03T10:05:22.682Z,3.27
2019-03-03T10:08:12.585Z,3.53
2019-03-03T10:11:14.215Z,1.87
2019-03-03T10:14:23.174Z,3.80
2019-03-03T10:17:10.458Z,1.60
2019-03-03T10:20:17.530Z,2.00
2019-03-03T10:26:27.062Z,1.93
2019-03-03T10:29:16.952Z,1.40
2019-03-03T10:32:07.005Z,2.97
2019-03-03T10:35:05.712Z,2.60
2019-03-03T10:37:42.020Z,3.27
2019-03-03T10:40:29.584Z,2.10
2019-03-03T10:43:13.547Z,1.63
2019-03-03T10:46:01.001Z,1.97
2019-03-03T10:48:36.906Z,3.40
2019-03-03T10:51:19.942Z,2.63
2019-03-03T10:54:09.414Z,2.87
2019-03-03T10:56:45.674Z,3.83
2019-03-03T10:59:35.576Z,2.43
2019-03-03T11:02:36.997Z,3.17
2019-03-03T11:05:24.813Z,2.60
2019-03-03T11:08:16.844Z,1.80
2019-03-03T11:11:11.581Z,3.27
2019-03-03T11:13:59.233Z,2.83
2019-03-03T11:16:48.284Z,2.43
2019-03-03T11:19:43.216Z,2.63
2019-03-03T11:22:32.419Z,1.50
2019-03-03T11:25:14.994Z,3.90
2019-03-03T11:27:56.589Z,1.77
2019-03-03T11:30:57.668Z,1.20
2019-03-03T11:33:45.644Z,1.50
2019-03-03T11:36:26.823Z,3.33
2019-03-03T11:39:14.376Z,2.00
2019-03-03T11:41:56.739Z,2.00
2019-03-03T11:44:55.076Z,2.50
2019-03-03T11:47:37.464Z,2.13
2019-03-03T11:50:27.389Z,2.90
2019-03-03T11:53:12.820Z,2.37
2019-03-03T11:55:54.933Z,2.97
2019-03-03T11:58:31.032Z,2.67
2019-03-03T12:01:26.142Z,2.13
2019-03-03T12:04:18.018Z,2.93
2019-03-03T12:06:55.056Z,3.27
2019-03-03T12:09:53.219Z,3.10
2019-03-03T12:12:51.386Z,2.33
2019-03-03T12:15:33.015Z,4.17
2019-03-03T12:18:28.772Z,2.83
2019-03-03T12:21:05.242Z,4.40
2019-03-03T12:23:48.535Z,4.40
2019-03-03T12:26:43.925Z,4.07
2019-03-03T12:29:27.444Z,4.57
2019-03-03T12:32:14.916Z,3.83
2019-03-03T12:34:51.165Z,4.00
2019-03-03T12:37:43.349Z,4.30
2019-03-03T12:40:34.706Z,3.53
2019-03-03T12:43:18.969Z,5.20
2019-03-03T12:46:02.304Z,5.43
2019-03-03T12:48:48.991Z,4.53
2019-03-03T12:51:44.321Z,3.33
2019-03-03T12:54:33.600Z,5.57
2019-03-03T12:57:22.720Z,4.40
2019-03-03T13:00:14.772Z,3.53
2019-03-03T13:03:02.372Z,5.80
2019-03-03T13:06:06.315Z,6.40
2019-03-03T13:08:59.544Z,5.63
2019-03-03T13:11:51.281Z,3.27
2019-03-03T13:14:55.372Z,8.07
2019-03-03T13:17:48.542Z,5.63
2019-03-03T13:20:36.452Z,5.13
2019-03-03T13:23:25.535Z,4.63
2019-03-03T13:26:13.410Z,5.50
2019-03-03T13:28:54.905Z,5.97
2019-03-03T13:31:46.657Z,9.63
2019-03-03T13:34:27.905Z,7.50
2019-03-03T13:37:13.735Z,7.90
2019-03-03T13:40:01.349Z,7.83
2019-03-03T13:42:50.500Z,8.33
2019-03-03T13:45:20.695Z,6.57
2019-03-03T13:47:50.736Z,10.13
2019-03-03T13:50:20.924Z,7.23
2019-03-03T13:52:50.971Z,6.33
2019-03-03T13:55:21.365Z,8.73
2019-03-03T13:57:51.660Z,5.23
2019-03-03T14:00:22.160Z,7.17
2019-03-03T14:02:52.516Z,10.37
2019-03-03T14:05:24.005Z,8.50
2019-03-03T14:07:54.033Z,6.13
2019-03-03T14:10:24.158Z,6.33
2019-03-03T14:12:54.428Z,7.17
2019-03-03T14:15:24.810Z,6.30
2019-03-03T14:17:54.765Z,14.23
2019-03-03T14:20:24.893Z,5.53
2019-03-03T14:22:54.973Z,9.77
2019-03-03T14:25:26.157Z,9.10
2019-03-03T14:27:56.242Z,10.10
2019-03-03T14:30:26.780Z,8.57
2019-03-03T14:32:56.800Z,7.83
2019-03-03T14:35:26.931Z,9.23
2019-03-03T14:37:57.076Z,10.80
2019-03-03T14:40:27.228Z,10.07
2019-03-03T14:42:57.200Z,7.30
2019-03-03T14:45:30.407Z,6.10
2019-03-03T14:48:00.296Z,8.43
2019-03-03T14:50:30.652Z,9.70
2019-03-03T14:53:00.804Z,11.17
2019-03-03T14:55:30.932Z,5.73
2019-03-03T14:58:00.988Z,9.73
2019-03-03T15:00:32.514Z,10.40
2019-03-03T15:03:04.213Z,8.37
2019-03-03T15:05:34.384Z,7.03
2019-03-03T15:08:05.025Z,7.17
2019-03-03T15:10:35.202Z,8.07
2019-03-03T15:13:05.228Z,11.13
2019-03-03T15:15:35.643Z,7.63
2019-03-03T15:18:05.785Z,9.60
2019-03-03T15:20:36.106Z,8.33
2019-03-03T15:23:06.196Z,6.97
2019-03-03T15:25:36.326Z,7.77
2019-03-03T15:28:06.871Z,9.40
2019-03-03T15:30:37.098Z,11.47
2019-03-03T15:33:07.126Z,8.57
2019-03-03T15:35:37.269Z,4.93
2019-03-03T15:38:07.380Z,9.30
2019-03-03T15:40:37.520Z,8.03
2019-03-03T15:43:07.552Z,6.63
2019-03-03T15:45:37.710Z,7.03
2019-03-03T15:48:07.723Z,7.10
2019-03-03T15:50:37.906Z,7.47
2019-03-03T15:53:07.928Z,6.93
2019-03-03T15:55:38.056Z,8.73
2019-03-03T15:58:08.257Z,8.17
2019-03-03T16:00:38.459Z,6.57
2019-03-03T16:03:08.424Z,8.37
2019-03-03T16:05:38.567Z,6.93
2019-03-03T16:08:08.579Z,7.33
2019-03-03T16:10:38.847Z,7.50
2019-03-03T16:13:08.847Z,6.90
2019-03-03T16:15:38.969Z,6.73
2019-03-03T16:18:09.020Z,8.23
2019-03-03T16:20:39.079Z,6.07
2019-03-03T16:23:09.104Z,8.60
2019-03-03T16:25:39.120Z,10.33
2019-03-03T16:28:09.240Z,8.30
2019-03-03T16:30:39.280Z,8.00
2019-03-03T16:33:09.630Z,6.43
2019-03-03T16:35:39.713Z,6.40
2019-03-03T16:38:10.010Z,7.83
2019-03-03T16:40:40.157Z,8.90
2019-03-03T16:43:10.252Z,7.10
2019-03-03T16:45:40.360Z,8.97
2019-03-03T16:48:11.224Z,7.37
2019-03-03T16:50:41.644Z,9.93
2019-03-03T16:53:11.818Z,8.10
2019-03-03T16:55:41.759Z,9.47
2019-03-03T16:58:11.888Z,6.27
2019-03-03T17:00:42.024Z,11.70
2019-03-03T17:03:12.104Z,8.17
2019-03-03T17:05:42.138Z,7.40
2019-03-03T17:08:12.358Z,7.60
2019-03-03T17:10:42.381Z,11.13
2019-03-03T17:13:12.664Z,9.20
2019-03-03T17:15:42.892Z,6.53
2019-03-03T17:18:13.012Z,6.43
2019-03-03T17:20:43.064Z,6.60
2019-03-03T17:23:13.264Z,8.20
2019-03-03T17:25:43.672Z,6.60
2019-03-03T17:28:13.927Z,8.93
2019-03-03T17:30:44.143Z,8.07
2019-03-03T17:33:14.211Z,10.97
2019-03-03T17:35:44.172Z,7.60
2019-03-03T17:38:14.320Z,8.27
2019-03-03T17:40:44.329Z,7.20
2019-03-03T17:43:14.434Z,4.67
2019-03-03T17:45:44.583Z,9.67
2019-03-03T17:48:14.577Z,9.23
2019-03-03T17:50:44.604Z,7.43
2019-03-03T17:53:14.999Z,7.40
2019-03-03T17:55:46.102Z,9.87
2019-03-03T17:58:16.255Z,5.60
2019-03-03T18:00:47.274Z,6.77
2019-03-03T18:03:17.403Z,6.33
2019-03-03T18:05:47.407Z,8.03
2019-03-03T18:08:17.548Z,7.40
2019-03-03T18:10:47.571Z,9.07
2019-03-03T18:13:17.704Z,9.83
2019-03-03T18:15:47.739Z,8.33
2019-03-03T18:18:17.724Z,8.20
2019-03-03T18:20:47.748Z,10.20
2019-03-03T18:23:17.730Z,9.47
2019-03-03T18:25:47.661Z,5.87
2019-03-03T18:28:17.727Z,6.20
2019-03-03T18:30:47.736Z,10.40
2019-03-03T18:33:17.872Z,11.03
2019-03-03T18:35:47.892Z,7.93
2019-03-03T18:38:18.551Z,7.33
2019-03-03T18:40:48.897Z,8.70
2019-03-03T18:43:19.558Z,7.57
2019-03-03T18:45:49.948Z,7.13
2019-03-03T18:48:20.602Z,7.87
2019-03-03T18:50:51.005Z,8.37
2019-03-03T18:53:21.993Z,7.63
2019-03-03T18:55:52.457Z,6.67
2019-03-03T18:58:23.109Z,6.83
2019-03-03T19:00:53.739Z,6.90
2019-03-03T19:03:24.638Z,7.33
2019-03-03T19:05:55.979Z,6.63
2019-03-03T19:08:26.400Z,7.70
2019-03-03T19:10:56.416Z,5.97
2019-03-03T19:13:26.576Z,5.87
2019-03-03T19:15:56.516Z,8.37
2019-03-03T19:18:29.200Z,5.43
2019-03-03T19:20:59.193Z,6.33
2019-03-03T19:23:29.342Z,5.60
2019-03-03T19:25:59.857Z,5.93
2019-03-03T19:28:30.266Z,6.80
2019-03-03T19:31:00.587Z,5.13
2019-03-03T19:33:43.520Z,6.80
2019-03-03T19:36:14.252Z,3.53
2019-03-03T19:38:44.382Z,5.13
2019-03-03T19:41:14.421Z,4.47
2019-03-03T19:43:44.476Z,6.13
2019-03-03T19:46:14.832Z,4.50
2019-03-03T19:48:44.974Z,5.97
2019-03-03T19:51:15.021Z,4.40
2019-03-03T19:53:45.155Z,5.07
2019-03-03T19:56:15.176Z,4.53
2019-03-03T19:58:45.539Z,3.63
2019-03-03T20:01:15.540Z,7.43
2019-03-03T20:03:46.387Z,3.73
2019-03-03T20:06:16.523Z,4.03
2019-03-03T20:08:46.589Z,4.30
2019-03-03T20:11:16.583Z,7.37
2019-03-03T20:13:48.286Z,4.77
2019-03-03T20:16:18.308Z,5.17
2019-03-03T20:18:49.332Z,5.10
2019-03-03T20:21:19.348Z,4.63
2019-03-03T20:23:49.494Z,4.77
2019-03-03T20:26:20.891Z,5.53
2019-03-03T20:28:51.020Z,5.17
2019-03-03T20:31:21.203Z,5.60
2019-03-03T20:33:51.264Z,6.20
2019-03-03T20:36:21.216Z,6.23
2019-03-03T20:38:51.476Z,5.80
2019-03-03T20:41:21.424Z,4.77
2019-03-03T20:43:51.475Z,4.17
2019-03-03T20:46:21.440Z,7.97
2019-03-03T20:48:51.548Z,4.90
2019-03-03T20:51:21.502Z,5.30
2019-03-03T20:53:51.439Z,4.53
2019-03-03T20:56:21.496Z,4.23
2019-03-03T20:58:51.518Z,5.07
2019-03-03T21:01:21.472Z,5.27
2019-03-03T21:03:51.407Z,6.33
2019-03-03T21:06:21.487Z,7.43
2019-03-03T21:08:51.427Z,6.17
2019-03-03T21:11:21.380Z,3.53
2019-03-03T21:13:51.328Z,4.93
2019-03-03T21:16:21.424Z,5.03
2019-03-03T21:18:51.463Z,3.97
2019-03-03T21:21:21.465Z,3.80
2019-03-03T21:23:52.004Z,4.83
2019-03-03T21:26:22.085Z,3.83
2019-03-03T21:28:52.137Z,5.60
2019-03-03T21:31:22.076Z,3.23
2019-03-03T21:33:52.076Z,4.50
2019-03-03T21:36:22.011Z,4.53
2019-03-03T21:38:52.177Z,3.90
2019-03-03T21:41:24.930Z,5.00
2019-03-03T21:43:55.085Z,5.27
2019-03-03T21:46:25.049Z,3.87
2019-03-03T21:48:55.073Z,6.70
2019-03-03T21:51:25.204Z,4.57
2019-03-03T21:53:55.221Z,6.47
2019-03-03T21:56:25.625Z,4.53
2019-03-03T21:58:57.391Z,4.83
2019-03-03T22:01:28.008Z,5.30
2019-03-03T22:03:58.024Z,5.03
2019-03-03T22:06:28.004Z,2.97
2019-03-03T22:08:57.876Z,4.53
2019-03-03T22:11:27.948Z,3.47
2019-03-03T22:13:57.904Z,3.67
2019-03-03T22:16:27.783Z,3.70
2019-03-03T22:18:57.964Z,3.53
2019-03-03T22:21:27.932Z,3.50
2019-03-03T22:23:57.953Z,3.13
2019-03-03T22:26:27.965Z,6.73
2019-03-03T22:28:57.976Z,3.93
2019-03-03T22:31:28.125Z,4.33
2019-03-03T22:33:58.104Z,4.50
2019-03-03T22:36:28.081Z,3.80
2019-03-03T22:38:58.109Z,4.70
2019-03-03T22:41:28.464Z,6.13
2019-03-03T22:43:59.069Z,6.30
2019-03-03T22:46:29.427Z,4.57
2019-03-03T22:48:59.666Z,6.63
2019-03-03T22:51:30.333Z,5.77
2019-03-03T22:54:00.729Z,5.30
2019-03-03T22:56:31.485Z,4.23
2019-03-03T22:59:02.014Z,5.37
2019-03-03T23:01:41.489Z,6.37
2019-03-03T23:04:55.170Z,5.40
2019-03-03T23:07:40.808Z,3.77
2019-03-03T23:11:09.815Z,5.77
2019-03-03T23:14:19.825Z,4.77
2019-03-03T23:17:32.804Z,2.90
2019-03-03T23:20:31.176Z,6.27
2019-03-03T23:24:03.454Z,3.40
2019-03-03T23:26:33.423Z,5.33
2019-03-03T23:29:03.493Z,4.63
2019-03-03T23:31:33.623Z,3.87
2019-03-03T23:34:22.767Z,3.30
2019-03-03T23:36:52.738Z,4.97
2019-03-03T23:39:34.705Z,5.90
2019-03-03T23:42:16.368Z,6.03
2019-03-03T23:44:57.904Z,2.77
2019-03-03T23:47:40.190Z,3.90
2019-03-03T23:50:22.417Z,5.30
2019-03-03T23:53:04.664Z,5.37
2019-03-03T23:55:46.075Z,3.33
2019-03-03T23:58:27.590Z,4.27
